EPGD/GDN METAR and TAF weather

Enter ICAO airport designator
Station Type Date Time Source
EPGD METAR 2019/12/13 22:30 UTC NOAA

EPGD 132230Z 15011KT 5000 BR BKN003 OVC005 02/02 Q0988 R11/620195


Station Type Date Time Source
EPGD Decoded METAR 2019/12/13 22:30 UTC NOAA

Gdansk-Rebiechowo, Poland (EPGD) 54-23N 018-28E 138M
Dec 13, 2019 - 05:30 PM EST / 2019.12.13 2230 UTC
Wind: from the SSE (150 degrees) at 13 MPH (11 KT):0
Visibility: 3 mile(s):0
Sky conditions: overcast
Weather: mist
Temperature: 35 F (2 C)
Windchill: 26 F (-3 C):1
Dew Point: 35 F (2 C)
Relative Humidity: 100%
Pressure (altimeter): 29.18 in. Hg (0988 hPa)
ob: EPGD 132230Z 15011KT 5000 BR BKN003 OVC005 02/02 Q0988 R11/620195
cycle: 22

Station Type Date Time Source
EPGD TAF 2019/12/13 18:33 UTC NOAA

TAF TAF EPGD 131730Z 1318/1418 17012KT 6000 BKN010
TEMPO 1318/1322 2000 -RASN BR OVC002
BECMG 1322/1324 BKN016 PROB40
TEMPO 1408/1418 3000 -RA BR BKN005

Example: see airport list